sensor_id;sensor_type;location;lat;lon;timestamp;temperature;humidity
39665;DHT22;26679;50.872;4.332;2023-04-25T00:01:45;11.00;99.90
39665;DHT22;26679;50.872;4.332;2023-04-25T00:04:10;11.00;99.90
39665;DHT22;26679;50.872;4.332;2023-04-25T00:06:36;11.10;99.90
39665;DHT22;26679;50.872;4.332;2023-04-25T00:09:05;11.10;99.90
39665;DHT22;26679;50.872;4.332;2023-04-25T00:11:35;11.00;99.90
39665;DHT22;26679;50.872;4.332;2023-04-25T00:14:00;11.00;99.90
39665;DHT22;26679;50.872;4.332;2023-04-25T00:16:28;11.10;99.90
39665;DHT22;26679;50.872;4.332;2023-04-25T00:18:55;11.10;99.90
39665;DHT22;26679;50.872;4.332;2023-04-25T00:21:22;11.10;99.90
39665;DHT22;26679;50.872;4.332;2023-04-25T00:23:49;11.10;99.90
39665;DHT22;26679;50.872;4.332;2023-04-25T00:26:15;11.10;99.90
39665;DHT22;26679;50.872;4.332;2023-04-25T00:28:40;11.20;99.90
39665;DHT22;26679;50.872;4.332;2023-04-25T00:31:06;11.10;99.90
39665;DHT22;26679;50.872;4.332;2023-04-25T00:33:31;10.90;99.90
39665;DHT22;26679;50.872;4.332;2023-04-25T00:35:57;10.90;99.90
39665;DHT22;26679;50.872;4.332;2023-04-25T00:38:24;10.90;99.90
39665;DHT22;26679;50.872;4.332;2023-04-25T00:40:49;10.80;99.90
39665;DHT22;26679;50.872;4.332;2023-04-25T00:43:15;10.70;99.90
39665;DHT22;26679;50.872;4.332;2023-04-25T00:45:40;10.60;99.90
39665;DHT22;26679;50.872;4.332;2023-04-25T00:48:08;10.70;99.90
39665;DHT22;26679;50.872;4.332;2023-04-25T00:50:34;10.70;99.90
39665;DHT22;26679;50.872;4.332;2023-04-25T00:53:00;10.60;99.90
39665;DHT22;26679;50.872;4.332;2023-04-25T00:55:25;10.60;99.90
39665;DHT22;26679;50.872;4.332;2023-04-25T00:57:51;10.60;99.90
39665;DHT22;26679;50.872;4.332;2023-04-25T01:00:17;10.60;99.90
39665;DHT22;26679;50.872;4.332;2023-04-25T01:02:43;10.60;99.90
39665;DHT22;26679;50.872;4.332;2023-04-25T01:05:10;10.50;99.90
39665;DHT22;26679;50.872;4.332;2023-04-25T01:07:35;10.50;99.90
39665;DHT22;26679;50.872;4.332;2023-04-25T01:10:01;10.60;99.90
39665;DHT22;26679;50.872;4.332;2023-04-25T01:12:27;10.60;99.90
39665;DHT22;26679;50.872;4.332;2023-04-25T01:14:53;10.70;99.90
39665;DHT22;26679;50.872;4.332;2023-04-25T01:17:19;10.80;99.90
39665;DHT22;26679;50.872;4.332;2023-04-25T01:19:45;10.90;99.90
39665;DHT22;26679;50.872;4.332;2023-04-25T01:22:13;11.00;99.90
39665;DHT22;26679;50.872;4.332;2023-04-25T01:24:39;10.80;99.90
39665;DHT22;26679;50.872;4.332;2023-04-25T01:27:05;10.80;99.90
39665;DHT22;26679;50.872;4.332;2023-04-25T01:29:31;10.70;99.90
39665;DHT22;26679;50.872;4.332;2023-04-25T01:31:57;10.70;99.90
39665;DHT22;26679;50.872;4.332;2023-04-25T01:34:23;10.70;99.90
39665;DHT22;26679;50.872;4.332;2023-04-25T01:36:49;10.60;99.90
39665;DHT22;26679;50.872;4.332;2023-04-25T01:39:16;10.50;99.90
39665;DHT22;26679;50.872;4.332;2023-04-25T01:41:42;10.40;99.90
39665;DHT22;26679;50.872;4.332;2023-04-25T01:44:07;10.40;99.90
39665;DHT22;26679;50.872;4.332;2023-04-25T01:46:33;10.40;99.90
39665;DHT22;26679;50.872;4.332;2023-04-25T01:48:59;10.40;99.90
39665;DHT22;26679;50.872;4.332;2023-04-25T01:51:25;10.40;99.90
39665;DHT22;26679;50.872;4.332;2023-04-25T01:53:50;10.50;99.90
39665;DHT22;26679;50.872;4.332;2023-04-25T01:56:17;10.30;99.90
39665;DHT22;26679;50.872;4.332;2023-04-25T01:58:42;10.30;99.90
39665;DHT22;26679;50.872;4.332;2023-04-25T02:01:08;10.30;99.90
39665;DHT22;26679;50.872;4.332;2023-04-25T02:03:33;10.30;99.90
39665;DHT22;26679;50.872;4.332;2023-04-25T02:05:59;10.30;99.90
39665;DHT22;26679;50.872;4.332;2023-04-25T02:08:25;10.20;99.90
39665;DHT22;26679;50.872;4.332;2023-04-25T02:10:52;10.20;99.90
39665;DHT22;26679;50.872;4.332;2023-04-25T02:13:17;10.20;99.90
39665;DHT22;26679;50.872;4.332;2023-04-25T02:15:43;10.10;99.90
39665;DHT22;26679;50.872;4.332;2023-04-25T02:18:08;10.10;99.90
39665;DHT22;26679;50.872;4.332;2023-04-25T02:20:35;10.00;99.90
39665;DHT22;26679;50.872;4.332;2023-04-25T02:23:04;10.00;99.90
39665;DHT22;26679;50.872;4.332;2023-04-25T02:25:30;10.00;99.90
39665;DHT22;26679;50.872;4.332;2023-04-25T02:27:56;10.00;99.90
39665;DHT22;26679;50.872;4.332;2023-04-25T02:30:21;10.00;99.90
39665;DHT22;26679;50.872;4.332;2023-04-25T02:32:47;10.00;99.90
39665;DHT22;26679;50.872;4.332;2023-04-25T02:35:12;9.90;99.90
39665;DHT22;26679;50.872;4.332;2023-04-25T02:37:38;10.00;99.90
39665;DHT22;26679;50.872;4.332;2023-04-25T02:40:05;10.00;99.90
39665;DHT22;26679;50.872;4.332;2023-04-25T02:42:31;10.10;99.90
39665;DHT22;26679;50.872;4.332;2023-04-25T02:44:56;10.00;99.90
39665;DHT22;26679;50.872;4.332;2023-04-25T02:47:22;10.10;99.90
39665;DHT22;26679;50.872;4.332;2023-04-25T02:49:47;10.10;99.90
39665;DHT22;26679;50.872;4.332;2023-04-25T02:52:13;10.10;99.90
39665;DHT22;26679;50.872;4.332;2023-04-25T02:54:39;10.00;99.90
39665;DHT22;26679;50.872;4.332;2023-04-25T02:57:05;10.00;99.90
39665;DHT22;26679;50.872;4.332;2023-04-25T02:59:31;10.00;99.90
39665;DHT22;26679;50.872;4.332;2023-04-25T03:01:56;10.00;99.90
39665;DHT22;26679;50.872;4.332;2023-04-25T03:04:22;10.00;99.90
39665;DHT22;26679;50.872;4.332;2023-04-25T03:06:49;10.00;99.90
39665;DHT22;26679;50.872;4.332;2023-04-25T03:09:15;10.10;99.90
39665;DHT22;26679;50.872;4.332;2023-04-25T03:11:41;10.00;99.90
39665;DHT22;26679;50.872;4.332;2023-04-25T03:14:06;10.10;99.90
39665;DHT22;26679;50.872;4.332;2023-04-25T03:16:32;10.00;99.90
39665;DHT22;26679;50.872;4.332;2023-04-25T03:18:57;10.00;99.90
39665;DHT22;26679;50.872;4.332;2023-04-25T03:21:23;10.00;99.90
39665;DHT22;26679;50.872;4.332;2023-04-25T03:23:49;10.00;99.90
39665;DHT22;26679;50.872;4.332;2023-04-25T03:26:14;9.90;99.90
39665;DHT22;26679;50.872;4.332;2023-04-25T03:28:40;9.90;99.90
39665;DHT22;26679;50.872;4.332;2023-04-25T03:31:06;9.90;99.90
39665;DHT22;26679;50.872;4.332;2023-04-25T03:33:32;9.80;99.90
39665;DHT22;26679;50.872;4.332;2023-04-25T03:35:57;9.80;99.90
39665;DHT22;26679;50.872;4.332;2023-04-25T03:38:23;9.80;99.90
39665;DHT22;26679;50.872;4.332;2023-04-25T03:40:49;9.80;99.90
39665;DHT22;26679;50.872;4.332;2023-04-25T03:43:16;9.70;99.90
39665;DHT22;26679;50.872;4.332;2023-04-25T03:45:41;9.70;99.90
39665;DHT22;26679;50.872;4.332;2023-04-25T03:48:07;9.70;99.90
39665;DHT22;26679;50.872;4.332;2023-04-25T03:50:32;9.80;99.90
39665;DHT22;26679;50.872;4.332;2023-04-25T03:52:58;9.80;99.90
39665;DHT22;26679;50.872;4.332;2023-04-25T03:55:23;9.70;99.90
39665;DHT22;26679;50.872;4.332;2023-04-25T03:57:49;9.70;99.90
39665;DHT22;26679;50.872;4.332;2023-04-25T04:00:14;9.70;99.90
39665;DHT22;26679;50.872;4.332;2023-04-25T04:02:40;9.70;99.90
39665;DHT22;26679;50.872;4.332;2023-04-25T04:05:06;9.70;99.90
39665;DHT22;26679;50.872;4.332;2023-04-25T04:07:31;9.70;99.90
39665;DHT22;26679;50.872;4.332;2023-04-25T04:09:58;9.70;99.90
39665;DHT22;26679;50.872;4.332;2023-04-25T04:12:23;9.60;99.90
39665;DHT22;26679;50.872;4.332;2023-04-25T04:14:49;9.70;99.90
39665;DHT22;26679;50.872;4.332;2023-04-25T04:17:15;9.60;99.90
39665;DHT22;26679;50.872;4.332;2023-04-25T04:19:40;9.60;99.90
39665;DHT22;26679;50.872;4.332;2023-04-25T04:22:06;9.70;99.90
39665;DHT22;26679;50.872;4.332;2023-04-25T04:24:31;9.80;99.90
39665;DHT22;26679;50.872;4.332;2023-04-25T04:26:58;9.90;99.90
39665;DHT22;26679;50.872;4.332;2023-04-25T04:29:24;10.00;99.90
39665;DHT22;26679;50.872;4.332;2023-04-25T04:31:50;9.90;99.90
39665;DHT22;26679;50.872;4.332;2023-04-25T04:34:18;9.80;99.90
39665;DHT22;26679;50.872;4.332;2023-04-25T04:36:44;9.90;99.90
39665;DHT22;26679;50.872;4.332;2023-04-25T04:39:11;9.90;99.90
39665;DHT22;26679;50.872;4.332;2023-04-25T04:41:37;9.90;99.90
39665;DHT22;26679;50.872;4.332;2023-04-25T04:44:03;9.80;99.90
39665;DHT22;26679;50.872;4.332;2023-04-25T04:46:28;9.80;99.90
39665;DHT22;26679;50.872;4.332;2023-04-25T04:48:54;9.80;99.90
39665;DHT22;26679;50.872;4.332;2023-04-25T04:51:21;9.70;99.90
39665;DHT22;26679;50.872;4.332;2023-04-25T04:53:47;9.60;99.90
39665;DHT22;26679;50.872;4.332;2023-04-25T04:56:12;9.60;99.90
39665;DHT22;26679;50.872;4.332;2023-04-25T04:58:38;9.70;99.90
39665;DHT22;26679;50.872;4.332;2023-04-25T05:01:03;9.50;99.90
39665;DHT22;26679;50.872;4.332;2023-04-25T05:03:29;9.40;99.90
39665;DHT22;26679;50.872;4.332;2023-04-25T05:05:54;9.40;99.90
39665;DHT22;26679;50.872;4.332;2023-04-25T05:08:20;9.40;99.90
39665;DHT22;26679;50.872;4.332;2023-04-25T05:10:45;9.40;99.90
39665;DHT22;26679;50.872;4.332;2023-04-25T05:13:11;9.40;99.90
39665;DHT22;26679;50.872;4.332;2023-04-25T05:15:37;9.40;99.90
39665;DHT22;26679;50.872;4.332;2023-04-25T05:18:02;9.50;99.90
39665;DHT22;26679;50.872;4.332;2023-04-25T05:20:28;9.60;99.90
39665;DHT22;26679;50.872;4.332;2023-04-25T05:22:53;9.70;99.90
39665;DHT22;26679;50.872;4.332;2023-04-25T05:25:19;9.60;99.90
39665;DHT22;26679;50.872;4.332;2023-04-25T05:27:44;9.60;99.90
39665;DHT22;26679;50.872;4.332;2023-04-25T05:30:10;9.50;99.90
39665;DHT22;26679;50.872;4.332;2023-04-25T05:32:35;9.50;99.90
39665;DHT22;26679;50.872;4.332;2023-04-25T05:35:01;9.50;99.90
39665;DHT22;26679;50.872;4.332;2023-04-25T05:37:28;9.60;99.90
39665;DHT22;26679;50.872;4.332;2023-04-25T05:39:55;9.60;99.90
39665;DHT22;26679;50.872;4.332;2023-04-25T05:42:21;9.70;99.90
39665;DHT22;26679;50.872;4.332;2023-04-25T05:44:47;9.60;99.90
39665;DHT22;26679;50.872;4.332;2023-04-25T05:47:12;9.50;99.90
39665;DHT22;26679;50.872;4.332;2023-04-25T05:49:38;9.50;99.90
39665;DHT22;26679;50.872;4.332;2023-04-25T05:52:03;9.20;99.90
39665;DHT22;26679;50.872;4.332;2023-04-25T05:54:29;9.10;99.90
39665;DHT22;26679;50.872;4.332;2023-04-25T05:56:58;9.00;99.90
39665;DHT22;26679;50.872;4.332;2023-04-25T05:59:40;9.10;99.90
39665;DHT22;26679;50.872;4.332;2023-04-25T06:02:05;9.40;99.90
39665;DHT22;26679;50.872;4.332;2023-04-25T06:04:31;9.60;99.90
39665;DHT22;26679;50.872;4.332;2023-04-25T06:06:57;9.80;99.90
39665;DHT22;26679;50.872;4.332;2023-04-25T06:09:22;9.90;99.90
39665;DHT22;26679;50.872;4.332;2023-04-25T06:11:48;10.00;99.90
39665;DHT22;26679;50.872;4.332;2023-04-25T06:14:13;9.90;99.90
39665;DHT22;26679;50.872;4.332;2023-04-25T06:16:39;9.80;99.90
39665;DHT22;26679;50.872;4.332;2023-04-25T06:19:05;9.70;99.90
39665;DHT22;26679;50.872;4.332;2023-04-25T06:21:30;9.90;99.90
39665;DHT22;26679;50.872;4.332;2023-04-25T06:23:56;10.00;99.90
39665;DHT22;26679;50.872;4.332;2023-04-25T06:26:22;10.10;99.90
39665;DHT22;26679;50.872;4.332;2023-04-25T06:28:47;10.10;99.90
39665;DHT22;26679;50.872;4.332;2023-04-25T06:31:13;10.10;99.90
39665;DHT22;26679;50.872;4.332;2023-04-25T06:33:38;10.50;99.90
39665;DHT22;26679;50.872;4.332;2023-04-25T06:36:04;10.20;99.90
39665;DHT22;26679;50.872;4.332;2023-04-25T06:38:29;10.20;99.90
39665;DHT22;26679;50.872;4.332;2023-04-25T06:40:56;10.20;99.90
39665;DHT22;26679;50.872;4.332;2023-04-25T06:43:21;10.20;99.90
39665;DHT22;26679;50.872;4.332;2023-04-25T06:45:47;10.10;99.90
39665;DHT22;26679;50.872;4.332;2023-04-25T06:48:12;10.10;99.90
39665;DHT22;26679;50.872;4.332;2023-04-25T06:50:38;10.10;99.90
39665;DHT22;26679;50.872;4.332;2023-04-25T06:53:03;10.20;99.90
39665;DHT22;26679;50.872;4.332;2023-04-25T06:55:29;10.30;99.90
39665;DHT22;26679;50.872;4.332;2023-04-25T06:57:59;10.40;99.90
39665;DHT22;26679;50.872;4.332;2023-04-25T07:00:25;10.40;99.90
39665;DHT22;26679;50.872;4.332;2023-04-25T07:02:54;10.50;99.90
39665;DHT22;26679;50.872;4.332;2023-04-25T07:05:19;9.30;99.90
39665;DHT22;26679;50.872;4.332;2023-04-25T07:07:45;10.40;99.90
39665;DHT22;26679;50.872;4.332;2023-04-25T07:10:14;10.60;99.90
39665;DHT22;26679;50.872;4.332;2023-04-25T07:12:41;10.60;99.90
39665;DHT22;26679;50.872;4.332;2023-04-25T07:15:07;10.70;99.90
39665;DHT22;26679;50.872;4.332;2023-04-25T07:17:35;10.50;99.90
39665;DHT22;26679;50.872;4.332;2023-04-25T07:20:01;10.50;99.90
39665;DHT22;26679;50.872;4.332;2023-04-25T07:22:30;10.60;99.90
39665;DHT22;26679;50.872;4.332;2023-04-25T07:24:58;10.70;99.90
39665;DHT22;26679;50.872;4.332;2023-04-25T07:27:24;10.80;99.90
39665;DHT22;26679;50.872;4.332;2023-04-25T07:29:53;10.90;99.90
39665;DHT22;26679;50.872;4.332;2023-04-25T07:32:20;11.00;99.90
39665;DHT22;26679;50.872;4.332;2023-04-25T07:34:46;11.00;99.90
39665;DHT22;26679;50.872;4.332;2023-04-25T07:37:12;10.90;99.90
39665;DHT22;26679;50.872;4.332;2023-04-25T07:39:40;11.00;99.90
39665;DHT22;26679;50.872;4.332;2023-04-25T07:42:07;11.10;99.90
39665;DHT22;26679;50.872;4.332;2023-04-25T07:44:39;11.10;99.90
39665;DHT22;26679;50.872;4.332;2023-04-25T07:57:27;11.20;99.90
39665;DHT22;26679;50.872;4.332;2023-04-25T07:59:55;11.20;99.90
39665;DHT22;26679;50.872;4.332;2023-04-25T08:02:20;11.20;99.90
39665;DHT22;26679;50.872;4.332;2023-04-25T08:04:46;11.30;99.90
39665;DHT22;26679;50.872;4.332;2023-04-25T08:07:12;11.50;99.90
39665;DHT22;26679;50.872;4.332;2023-04-25T08:09:37;11.40;99.90
39665;DHT22;26679;50.872;4.332;2023-04-25T08:12:03;11.50;99.90
39665;DHT22;26679;50.872;4.332;2023-04-25T08:14:29;11.40;99.90
39665;DHT22;26679;50.872;4.332;2023-04-25T08:17:01;10.20;99.90
39665;DHT22;26679;50.872;4.332;2023-04-25T08:19:26;11.70;99.90
39665;DHT22;26679;50.872;4.332;2023-04-25T08:24:27;11.90;99.90
39665;DHT22;26679;50.872;4.332;2023-04-25T08:26:53;11.90;99.90
39665;DHT22;26679;50.872;4.332;2023-04-25T08:29:19;12.00;99.90
39665;DHT22;26679;50.872;4.332;2023-04-25T08:31:45;12.10;99.90
39665;DHT22;26679;50.872;4.332;2023-04-25T08:39:17;12.30;99.00
39665;DHT22;26679;50.872;4.332;2023-04-25T08:41:43;12.20;98.50
39665;DHT22;26679;50.872;4.332;2023-04-25T08:44:09;12.10;98.30
39665;DHT22;26679;50.872;4.332;2023-04-25T08:46:38;11.90;98.50
39665;DHT22;26679;50.872;4.332;2023-04-25T08:49:06;11.60;98.80
39665;DHT22;26679;50.872;4.332;2023-04-25T08:51:32;11.50;99.10
39665;DHT22;26679;50.872;4.332;2023-04-25T08:54:01;12.10;98.80
39665;DHT22;26679;50.872;4.332;2023-04-25T08:56:30;11.70;99.00
39665;DHT22;26679;50.872;4.332;2023-04-25T08:58:57;11.90;98.10
39665;DHT22;26679;50.872;4.332;2023-04-25T09:01:22;13.20;98.20
39665;DHT22;26679;50.872;4.332;2023-04-25T09:03:48;12.60;97.70
39665;DHT22;26679;50.872;4.332;2023-04-25T09:06:14;12.70;97.50
39665;DHT22;26679;50.872;4.332;2023-04-25T09:08:41;12.70;96.90
39665;DHT22;26679;50.872;4.332;2023-04-25T09:11:07;12.50;96.40
39665;DHT22;26679;50.872;4.332;2023-04-25T09:13:32;12.40;96.40
39665;DHT22;26679;50.872;4.332;2023-04-25T09:15:58;12.40;96.70
39665;DHT22;26679;50.872;4.332;2023-04-25T09:20:51;12.50;95.90
39665;DHT22;26679;50.872;4.332;2023-04-25T09:23:17;12.50;95.90
39665;DHT22;26679;50.872;4.332;2023-04-25T09:25:44;12.30;95.80
39665;DHT22;26679;50.872;4.332;2023-04-25T09:28:12;12.20;95.90
39665;DHT22;26679;50.872;4.332;2023-04-25T09:30:38;12.00;96.50
39665;DHT22;26679;50.872;4.332;2023-04-25T09:33:07;12.10;97.00
39665;DHT22;26679;50.872;4.332;2023-04-25T09:35:50;12.40;97.50
39665;DHT22;26679;50.872;4.332;2023-04-25T09:38:26;12.90;96.70
39665;DHT22;26679;50.872;4.332;2023-04-25T09:40:52;13.10;96.50
39665;DHT22;26679;50.872;4.332;2023-04-25T09:45:49;13.10;96.70
39665;DHT22;26679;50.872;4.332;2023-04-25T09:48:20;13.50;96.70
39665;DHT22;26679;50.872;4.332;2023-04-25T09:53:22;15.20;95.50
39665;DHT22;26679;50.872;4.332;2023-04-25T09:55:48;16.00;93.90
39665;DHT22;26679;50.872;4.332;2023-04-25T09:58:14;17.20;93.60
39665;DHT22;26679;50.872;4.332;2023-04-25T10:00:40;18.50;91.60
39665;DHT22;26679;50.872;4.332;2023-04-25T10:03:06;19.30;90.30
39665;DHT22;26679;50.872;4.332;2023-04-25T10:05:32;17.90;89.30
39665;DHT22;26679;50.872;4.332;2023-04-25T10:08:02;17.70;90.40
39665;DHT22;26679;50.872;4.332;2023-04-25T10:10:28;19.20;88.00
39665;DHT22;26679;50.872;4.332;2023-04-25T10:12:55;20.10;86.80
39665;DHT22;26679;50.872;4.332;2023-04-25T10:15:21;20.00;85.50
39665;DHT22;26679;50.872;4.332;2023-04-25T10:17:47;18.90;83.70
39665;DHT22;26679;50.872;4.332;2023-04-25T10:20:13;17.50;84.10
39665;DHT22;26679;50.872;4.332;2023-04-25T10:22:39;17.30;85.30
39665;DHT22;26679;50.872;4.332;2023-04-25T10:25:09;18.10;84.40
39665;DHT22;26679;50.872;4.332;2023-04-25T10:27:35;19.20;81.90
39665;DHT22;26679;50.872;4.332;2023-04-25T10:32:32;20.90;80.50
39665;DHT22;26679;50.872;4.332;2023-04-25T10:35:09;21.70;76.80
39665;DHT22;26679;50.872;4.332;2023-04-25T10:37:35;21.80;76.80
39665;DHT22;26679;50.872;4.332;2023-04-25T10:40:07;22.70;76.40
39665;DHT22;26679;50.872;4.332;2023-04-25T10:42:33;22.30;74.80
39665;DHT22;26679;50.872;4.332;2023-04-25T10:45:02;22.50;73.70
39665;DHT22;26679;50.872;4.332;2023-04-25T10:47:36;21.30;73.70
39665;DHT22;26679;50.872;4.332;2023-04-25T10:50:11;19.90;74.30
39665;DHT22;26679;50.872;4.332;2023-04-25T10:52:38;18.50;75.30
39665;DHT22;26679;50.872;4.332;2023-04-25T10:55:04;17.30;78.00
39665;DHT22;26679;50.872;4.332;2023-04-25T11:02:42;15.20;84.20
39665;DHT22;26679;50.872;4.332;2023-04-25T11:10:26;13.50;92.20
39665;DHT22;26679;50.872;4.332;2023-04-25T11:12:54;13.20;92.90
39665;DHT22;26679;50.872;4.332;2023-04-25T11:15:19;13.00;93.00
39665;DHT22;26679;50.872;4.332;2023-04-25T11:17:45;13.00;93.10
39665;DHT22;26679;50.872;4.332;2023-04-25T11:20:12;13.20;92.80
39665;DHT22;26679;50.872;4.332;2023-04-25T11:22:38;13.40;92.00
39665;DHT22;26679;50.872;4.332;2023-04-25T11:25:09;13.50;92.00
39665;DHT22;26679;50.872;4.332;2023-04-25T11:27:48;14.00;91.90
39665;DHT22;26679;50.872;4.332;2023-04-25T11:30:14;14.60;90.60
39665;DHT22;26679;50.872;4.332;2023-04-25T11:32:43;15.00;91.00
39665;DHT22;26679;50.872;4.332;2023-04-25T11:35:14;15.50;89.30
39665;DHT22;26679;50.872;4.332;2023-04-25T11:37:43;15.50;87.50
39665;DHT22;26679;50.872;4.332;2023-04-25T11:40:09;15.20;88.00
39665;DHT22;26679;50.872;4.332;2023-04-25T11:42:38;15.10;88.70
39665;DHT22;26679;50.872;4.332;2023-04-25T11:45:05;15.10;88.50
39665;DHT22;26679;50.872;4.332;2023-04-25T11:47:31;15.00;90.00
39665;DHT22;26679;50.872;4.332;2023-04-25T11:50:00;14.90;88.80
39665;DHT22;26679;50.872;4.332;2023-04-25T11:55:06;15.40;89.60
39665;DHT22;26679;50.872;4.332;2023-04-25T11:57:32;17.10;86.10
39665;DHT22;26679;50.872;4.332;2023-04-25T12:02:36;20.00;83.40
39665;DHT22;26679;50.872;4.332;2023-04-25T12:05:02;20.20;78.10
39665;DHT22;26679;50.872;4.332;2023-04-25T12:07:28;20.90;78.30
39665;DHT22;26679;50.872;4.332;2023-04-25T12:09:54;20.80;76.60
39665;DHT22;26679;50.872;4.332;2023-04-25T12:12:20;20.20;77.00
39665;DHT22;26679;50.872;4.332;2023-04-25T12:14:46;19.40;78.70
39665;DHT22;26679;50.872;4.332;2023-04-25T12:17:13;18.70;79.30
39665;DHT22;26679;50.872;4.332;2023-04-25T12:19:38;19.20;80.20
39665;DHT22;26679;50.872;4.332;2023-04-25T12:24:46;20.60;79.70
39665;DHT22;26679;50.872;4.332;2023-04-25T12:27:13;20.50;78.40
39665;DHT22;26679;50.872;4.332;2023-04-25T12:29:49;19.70;79.50
39665;DHT22;26679;50.872;4.332;2023-04-25T12:32:18;18.00;79.30
39665;DHT22;26679;50.872;4.332;2023-04-25T12:34:45;17.10;79.80
39665;DHT22;26679;50.872;4.332;2023-04-25T12:37:11;16.70;79.80
39665;DHT22;26679;50.872;4.332;2023-04-25T12:39:37;16.30;81.10
39665;DHT22;26679;50.872;4.332;2023-04-25T12:42:02;15.90;81.20
39665;DHT22;26679;50.872;4.332;2023-04-25T12:44:28;16.80;80.90
39665;DHT22;26679;50.872;4.332;2023-04-25T12:46:55;18.70;78.00
39665;DHT22;26679;50.872;4.332;2023-04-25T12:49:21;20.30;75.70
39665;DHT22;26679;50.872;4.332;2023-04-25T12:51:47;21.80;74.40
39665;DHT22;26679;50.872;4.332;2023-04-25T12:54:13;22.60;73.60
39665;DHT22;26679;50.872;4.332;2023-04-25T12:56:46;22.50;73.20
39665;DHT22;26679;50.872;4.332;2023-04-25T12:59:12;21.70;73.60
39665;DHT22;26679;50.872;4.332;2023-04-25T13:01:38;21.30;74.20
39665;DHT22;26679;50.872;4.332;2023-04-25T13:04:04;20.20;74.30
39665;DHT22;26679;50.872;4.332;2023-04-25T13:06:29;19.50;75.10
39665;DHT22;26679;50.872;4.332;2023-04-25T13:08:58;18.60;77.80
39665;DHT22;26679;50.872;4.332;2023-04-25T13:11:23;18.00;78.50
39665;DHT22;26679;50.872;4.332;2023-04-25T13:13:49;17.40;79.50
39665;DHT22;26679;50.872;4.332;2023-04-25T13:16:14;17.00;80.10
39665;DHT22;26679;50.872;4.332;2023-04-25T13:18:40;18.10;79.80
39665;DHT22;26679;50.872;4.332;2023-04-25T13:21:06;19.70;78.40
39665;DHT22;26679;50.872;4.332;2023-04-25T13:23:36;20.70;75.30
39665;DHT22;26679;50.872;4.332;2023-04-25T13:26:01;20.90;74.20
39665;DHT22;26679;50.872;4.332;2023-04-25T13:28:27;20.60;74.50
39665;DHT22;26679;50.872;4.332;2023-04-25T13:30:53;20.60;73.50
39665;DHT22;26679;50.872;4.332;2023-04-25T13:33:19;19.80;74.30
39665;DHT22;26679;50.872;4.332;2023-04-25T13:35:45;21.10;73.50
39665;DHT22;26679;50.872;4.332;2023-04-25T13:38:12;22.30;71.80
39665;DHT22;26679;50.872;4.332;2023-04-25T13:40:38;23.00;69.00
39665;DHT22;26679;50.872;4.332;2023-04-25T13:43:04;23.60;69.20
39665;DHT22;26679;50.872;4.332;2023-04-25T13:45:29;24.20;69.00
39665;DHT22;26679;50.872;4.332;2023-04-25T13:47:55;25.00;68.10
39665;DHT22;26679;50.872;4.332;2023-04-25T13:50:21;24.70;66.10
39665;DHT22;26679;50.872;4.332;2023-04-25T13:53:06;24.70;66.60
39665;DHT22;26679;50.872;4.332;2023-04-25T13:55:33;24.30;65.80
39665;DHT22;26679;50.872;4.332;2023-04-25T13:58:00;24.20;66.40
39665;DHT22;26679;50.872;4.332;2023-04-25T14:00:32;22.80;68.30
39665;DHT22;26679;50.872;4.332;2023-04-25T14:02:58;21.20;70.90
39665;DHT22;26679;50.872;4.332;2023-04-25T14:05:23;20.30;72.00
39665;DHT22;26679;50.872;4.332;2023-04-25T14:07:49;19.80;72.80
39665;DHT22;26679;50.872;4.332;2023-04-25T14:10:14;19.10;72.70
39665;DHT22;26679;50.872;4.332;2023-04-25T14:12:40;18.60;73.70
39665;DHT22;26679;50.872;4.332;2023-04-25T14:15:06;19.50;74.20
39665;DHT22;26679;50.872;4.332;2023-04-25T14:17:32;20.20;72.20
39665;DHT22;26679;50.872;4.332;2023-04-25T14:19:57;20.10;71.90
39665;DHT22;26679;50.872;4.332;2023-04-25T14:22:23;20.60;71.50
39665;DHT22;26679;50.872;4.332;2023-04-25T14:24:48;21.40;69.80
39665;DHT22;26679;50.872;4.332;2023-04-25T14:27:14;21.30;70.00
39665;DHT22;26679;50.872;4.332;2023-04-25T14:29:40;21.60;70.40
39665;DHT22;26679;50.872;4.332;2023-04-25T14:32:05;21.90;69.80
39665;DHT22;26679;50.872;4.332;2023-04-25T14:34:31;22.40;68.60
39665;DHT22;26679;50.872;4.332;2023-04-25T14:36:57;23.30;66.80
39665;DHT22;26679;50.872;4.332;2023-04-25T14:39:22;23.80;66.70
39665;DHT22;26679;50.872;4.332;2023-04-25T14:41:48;24.80;66.00
39665;DHT22;26679;50.872;4.332;2023-04-25T14:44:13;24.90;65.40
39665;DHT22;26679;50.872;4.332;2023-04-25T14:46:39;25.00;64.90
39665;DHT22;26679;50.872;4.332;2023-04-25T14:49:04;24.00;64.60
39665;DHT22;26679;50.872;4.332;2023-04-25T14:51:30;23.70;66.20
39665;DHT22;26679;50.872;4.332;2023-04-25T14:53:56;24.00;66.50
39665;DHT22;26679;50.872;4.332;2023-04-25T14:56:22;22.70;66.80
39665;DHT22;26679;50.872;4.332;2023-04-25T14:58:47;21.50;68.00
39665;DHT22;26679;50.872;4.332;2023-04-25T15:01:13;20.10;69.70
39665;DHT22;26679;50.872;4.332;2023-04-25T15:03:42;19.50;70.40
39665;DHT22;26679;50.872;4.332;2023-04-25T15:06:07;19.20;70.80
39665;DHT22;26679;50.872;4.332;2023-04-25T15:08:33;18.70;71.40
39665;DHT22;26679;50.872;4.332;2023-04-25T15:10:58;18.30;71.20
39665;DHT22;26679;50.872;4.332;2023-04-25T15:13:24;18.40;71.30
39665;DHT22;26679;50.872;4.332;2023-04-25T15:15:50;19.10;72.00
39665;DHT22;26679;50.872;4.332;2023-04-25T15:18:17;19.00;72.30
39665;DHT22;26679;50.872;4.332;2023-04-25T15:20:43;19.40;72.20
39665;DHT22;26679;50.872;4.332;2023-04-25T15:23:09;20.70;71.00
39665;DHT22;26679;50.872;4.332;2023-04-25T15:25:34;21.50;70.40
39665;DHT22;26679;50.872;4.332;2023-04-25T15:28:00;21.90;68.50
39665;DHT22;26679;50.872;4.332;2023-04-25T15:30:25;22.20;67.40
39665;DHT22;26679;50.872;4.332;2023-04-25T15:32:51;22.40;67.40
39665;DHT22;26679;50.872;4.332;2023-04-25T15:35:16;22.60;67.40
39665;DHT22;26679;50.872;4.332;2023-04-25T15:37:42;23.00;67.00
39665;DHT22;26679;50.872;4.332;2023-04-25T15:40:09;23.10;67.40
39665;DHT22;26679;50.872;4.332;2023-04-25T15:45:18;23.20;65.40
39665;DHT22;26679;50.872;4.332;2023-04-25T15:47:44;23.10;65.60
39665;DHT22;26679;50.872;4.332;2023-04-25T15:50:10;23.00;65.90
39665;DHT22;26679;50.872;4.332;2023-04-25T15:52:36;22.90;66.50
39665;DHT22;26679;50.872;4.332;2023-04-25T15:55:02;23.20;67.10
39665;DHT22;26679;50.872;4.332;2023-04-25T15:57:32;23.40;66.50
39665;DHT22;26679;50.872;4.332;2023-04-25T15:59:58;23.30;66.30
39665;DHT22;26679;50.872;4.332;2023-04-25T16:02:23;22.90;66.50
39665;DHT22;26679;50.872;4.332;2023-04-25T16:04:49;22.90;66.50
39665;DHT22;26679;50.872;4.332;2023-04-25T16:07:15;22.60;67.20
39665;DHT22;26679;50.872;4.332;2023-04-25T16:09:41;22.20;67.20
39665;DHT22;26679;50.872;4.332;2023-04-25T16:12:10;22.10;67.80
39665;DHT22;26679;50.872;4.332;2023-04-25T16:14:36;21.30;67.80
39665;DHT22;26679;50.872;4.332;2023-04-25T16:17:01;20.30;68.70
39665;DHT22;26679;50.872;4.332;2023-04-25T16:19:27;19.90;69.70